sensor_id;sensor_type;location;lat;lon;timestamp;P1;durP1;ratioP1;P2;durP2;ratioP2
7879;SDS011;3985;49.366;2.738;2023-04-24T00:01:51;7.00;;;6.50;;
7879;SDS011;3985;49.366;2.738;2023-04-24T00:04:20;8.50;;;6.00;;
7879;SDS011;3985;49.366;2.738;2023-04-24T00:06:50;8.50;;;5.75;;
7879;SDS011;3985;49.366;2.738;2023-04-24T00:09:19;9.00;;;6.50;;
7879;SDS011;3985;49.366;2.738;2023-04-24T00:11:46;6.00;;;4.00;;
7879;SDS011;3985;49.366;2.738;2023-04-24T00:14:13;4.00;;;4.00;;
7879;SDS011;3985;49.366;2.738;2023-04-24T00:16:41;7.50;;;7.50;;
7879;SDS011;3985;49.366;2.738;2023-04-24T00:19:08;6.50;;;6.50;;
7879;SDS011;3985;49.366;2.738;2023-04-24T00:21:38;7.75;;;7.75;;
7879;SDS011;3985;49.366;2.738;2023-04-24T00:24:06;5.00;;;5.00;;
7879;SDS011;3985;49.366;2.738;2023-04-24T00:26:34;7.50;;;6.50;;
7879;SDS011;3985;49.366;2.738;2023-04-24T00:29:01;9.00;;;7.50;;
7879;SDS011;3985;49.366;2.738;2023-04-24T00:31:29;6.00;;;6.00;;
7879;SDS011;3985;49.366;2.738;2023-04-24T00:33:56;7.00;;;7.00;;
7879;SDS011;3985;49.366;2.738;2023-04-24T00:36:23;5.75;;;5.75;;
7879;SDS011;3985;49.366;2.738;2023-04-24T00:38:53;9.25;;;9.25;;
7879;SDS011;3985;49.366;2.738;2023-04-24T00:41:20;3.50;;;3.50;;
7879;SDS011;3985;49.366;2.738;2023-04-24T00:43:48;8.50;;;8.50;;
7879;SDS011;3985;49.366;2.738;2023-04-24T00:46:16;10.50;;;6.25;;
7879;SDS011;3985;49.366;2.738;2023-04-24T00:48:43;8.75;;;8.75;;
7879;SDS011;3985;49.366;2.738;2023-04-24T00:51:10;8.50;;;6.50;;
7879;SDS011;3985;49.366;2.738;2023-04-24T00:53:38;7.50;;;5.75;;
7879;SDS011;3985;49.366;2.738;2023-04-24T00:56:06;8.00;;;8.00;;
7879;SDS011;3985;49.366;2.738;2023-04-24T00:58:34;6.50;;;6.50;;
7879;SDS011;3985;49.366;2.738;2023-04-24T01:01:01;3.00;;;3.00;;
7879;SDS011;3985;49.366;2.738;2023-04-24T01:03:32;8.25;;;6.50;;
7879;SDS011;3985;49.366;2.738;2023-04-24T01:06:01;7.50;;;7.50;;
7879;SDS011;3985;49.366;2.738;2023-04-24T01:08:29;7.00;;;5.75;;
7879;SDS011;3985;49.366;2.738;2023-04-24T01:10:57;7.00;;;7.00;;
7879;SDS011;3985;49.366;2.738;2023-04-24T01:13:25;8.50;;;4.00;;
7879;SDS011;3985;49.366;2.738;2023-04-24T01:15:52;4.50;;;4.50;;
7879;SDS011;3985;49.366;2.738;2023-04-24T01:18:20;11.75;;;7.00;;
7879;SDS011;3985;49.366;2.738;2023-04-24T01:20:47;8.50;;;8.50;;
7879;SDS011;3985;49.366;2.738;2023-04-24T01:23:18;7.00;;;7.00;;
7879;SDS011;3985;49.366;2.738;2023-04-24T01:25:46;5.25;;;5.25;;
7879;SDS011;3985;49.366;2.738;2023-04-24T01:28:13;5.00;;;5.00;;
7879;SDS011;3985;49.366;2.738;2023-04-24T01:30:40;5.25;;;5.25;;
7879;SDS011;3985;49.366;2.738;2023-04-24T01:33:08;5.00;;;3.75;;
7879;SDS011;3985;49.366;2.738;2023-04-24T01:35:35;7.25;;;5.00;;
7879;SDS011;3985;49.366;2.738;2023-04-24T01:38:03;7.25;;;7.25;;
7879;SDS011;3985;49.366;2.738;2023-04-24T01:40:32;6.75;;;4.00;;
7879;SDS011;3985;49.366;2.738;2023-04-24T01:42:59;5.00;;;5.00;;
7879;SDS011;3985;49.366;2.738;2023-04-24T01:45:26;8.25;;;7.25;;
7879;SDS011;3985;49.366;2.738;2023-04-24T01:47:53;8.25;;;5.00;;
7879;SDS011;3985;49.366;2.738;2023-04-24T01:50:21;7.00;;;7.00;;
7879;SDS011;3985;49.366;2.738;2023-04-24T01:52:48;9.00;;;6.25;;
7879;SDS011;3985;49.366;2.738;2023-04-24T01:55:15;6.25;;;6.25;;
7879;SDS011;3985;49.366;2.738;2023-04-24T01:57:44;11.00;;;9.00;;
7879;SDS011;3985;49.366;2.738;2023-04-24T02:00:11;6.00;;;4.75;;
7879;SDS011;3985;49.366;2.738;2023-04-24T02:02:40;8.00;;;8.00;;
7879;SDS011;3985;49.366;2.738;2023-04-24T02:05:08;8.25;;;8.25;;
7879;SDS011;3985;49.366;2.738;2023-04-24T02:07:36;7.50;;;7.00;;
7879;SDS011;3985;49.366;2.738;2023-04-24T02:10:03;16.00;;;9.25;;
7879;SDS011;3985;49.366;2.738;2023-04-24T02:12:31;9.00;;;9.00;;
7879;SDS011;3985;49.366;2.738;2023-04-24T02:15:00;8.75;;;8.75;;
7879;SDS011;3985;49.366;2.738;2023-04-24T02:17:27;10.00;;;8.00;;
7879;SDS011;3985;49.366;2.738;2023-04-24T02:19:54;12.50;;;12.00;;
7879;SDS011;3985;49.366;2.738;2023-04-24T02:22:21;13.25;;;11.25;;
7879;SDS011;3985;49.366;2.738;2023-04-24T02:24:49;11.50;;;11.25;;
7879;SDS011;3985;49.366;2.738;2023-04-24T02:27:16;11.00;;;11.00;;
7879;SDS011;3985;49.366;2.738;2023-04-24T02:29:43;13.00;;;13.00;;
7879;SDS011;3985;49.366;2.738;2023-04-24T02:32:12;9.25;;;9.25;;
7879;SDS011;3985;49.366;2.738;2023-04-24T02:34:40;14.25;;;12.25;;
7879;SDS011;3985;49.366;2.738;2023-04-24T02:37:07;15.00;;;10.00;;
7879;SDS011;3985;49.366;2.738;2023-04-24T02:39:34;11.25;;;11.25;;
7879;SDS011;3985;49.366;2.738;2023-04-24T02:42:02;12.50;;;8.75;;
7879;SDS011;3985;49.366;2.738;2023-04-24T02:44:29;9.50;;;9.50;;
7879;SDS011;3985;49.366;2.738;2023-04-24T02:46:56;13.25;;;12.00;;
7879;SDS011;3985;49.366;2.738;2023-04-24T02:49:25;9.75;;;8.00;;
7879;SDS011;3985;49.366;2.738;2023-04-24T02:51:52;11.00;;;11.00;;
7879;SDS011;3985;49.366;2.738;2023-04-24T02:54:19;9.00;;;9.00;;
7879;SDS011;3985;49.366;2.738;2023-04-24T02:56:46;15.00;;;13.25;;
7879;SDS011;3985;49.366;2.738;2023-04-24T02:59:14;11.75;;;10.25;;
7879;SDS011;3985;49.366;2.738;2023-04-24T03:01:41;9.00;;;9.00;;
7879;SDS011;3985;49.366;2.738;2023-04-24T03:04:08;13.75;;;12.25;;
7879;SDS011;3985;49.366;2.738;2023-04-24T03:06:37;10.00;;;6.75;;
7879;SDS011;3985;49.366;2.738;2023-04-24T03:09:05;10.25;;;10.25;;
7879;SDS011;3985;49.366;2.738;2023-04-24T03:11:32;13.00;;;13.00;;
7879;SDS011;3985;49.366;2.738;2023-04-24T03:13:59;11.50;;;11.50;;
7879;SDS011;3985;49.366;2.738;2023-04-24T03:16:30;13.50;;;13.50;;
7879;SDS011;3985;49.366;2.738;2023-04-24T03:18:58;12.00;;;12.00;;
7879;SDS011;3985;49.366;2.738;2023-04-24T03:21:25;13.00;;;10.75;;
7879;SDS011;3985;49.366;2.738;2023-04-24T03:23:54;17.75;;;11.75;;
7879;SDS011;3985;49.366;2.738;2023-04-24T03:26:21;11.75;;;11.00;;
7879;SDS011;3985;49.366;2.738;2023-04-24T03:28:48;14.50;;;14.50;;
7879;SDS011;3985;49.366;2.738;2023-04-24T03:31:15;11.25;;;11.25;;
7879;SDS011;3985;49.366;2.738;2023-04-24T03:33:44;15.00;;;12.75;;
7879;SDS011;3985;49.366;2.738;2023-04-24T03:36:11;12.25;;;10.25;;
7879;SDS011;3985;49.366;2.738;2023-04-24T03:38:38;11.75;;;11.25;;
7879;SDS011;3985;49.366;2.738;2023-04-24T03:41:07;12.00;;;11.25;;
7879;SDS011;3985;49.366;2.738;2023-04-24T03:43:34;16.25;;;15.00;;
7879;SDS011;3985;49.366;2.738;2023-04-24T03:46:01;9.75;;;9.75;;
7879;SDS011;3985;49.366;2.738;2023-04-24T03:48:28;10.50;;;9.50;;
7879;SDS011;3985;49.366;2.738;2023-04-24T03:50:55;11.75;;;11.75;;
7879;SDS011;3985;49.366;2.738;2023-04-24T03:53:26;4.50;;;4.50;;
7879;SDS011;3985;49.366;2.738;2023-04-24T03:55:53;10.50;;;10.50;;
7879;SDS011;3985;49.366;2.738;2023-04-24T03:58:22;14.75;;;10.75;;
7879;SDS011;3985;49.366;2.738;2023-04-24T04:00:49;7.25;;;5.75;;
7879;SDS011;3985;49.366;2.738;2023-04-24T04:03:16;13.50;;;11.00;;
7879;SDS011;3985;49.366;2.738;2023-04-24T04:05:43;11.75;;;10.25;;
7879;SDS011;3985;49.366;2.738;2023-04-24T04:08:10;14.25;;;14.25;;
7879;SDS011;3985;49.366;2.738;2023-04-24T04:10:38;11.25;;;11.25;;
7879;SDS011;3985;49.366;2.738;2023-04-24T04:13:05;12.25;;;12.25;;
7879;SDS011;3985;49.366;2.738;2023-04-24T04:15:33;11.00;;;10.75;;
7879;SDS011;3985;49.366;2.738;2023-04-24T04:18:00;10.00;;;10.00;;
7879;SDS011;3985;49.366;2.738;2023-04-24T04:20:28;17.00;;;12.75;;
7879;SDS011;3985;49.366;2.738;2023-04-24T04:22:55;12.50;;;11.25;;
7879;SDS011;3985;49.366;2.738;2023-04-24T04:25:22;12.00;;;12.00;;
7879;SDS011;3985;49.366;2.738;2023-04-24T04:27:50;10.00;;;10.00;;
7879;SDS011;3985;49.366;2.738;2023-04-24T04:30:17;15.25;;;12.75;;
7879;SDS011;3985;49.366;2.738;2023-04-24T04:32:47;15.50;;;11.00;;
7879;SDS011;3985;49.366;2.738;2023-04-24T04:35:14;13.00;;;13.00;;
7879;SDS011;3985;49.366;2.738;2023-04-24T04:37:41;10.50;;;10.50;;
7879;SDS011;3985;49.366;2.738;2023-04-24T04:40:09;11.50;;;11.50;;
7879;SDS011;3985;49.366;2.738;2023-04-24T04:42:37;9.75;;;9.75;;
7879;SDS011;3985;49.366;2.738;2023-04-24T04:45:06;12.25;;;11.50;;
7879;SDS011;3985;49.366;2.738;2023-04-24T04:47:36;15.00;;;15.00;;
7879;SDS011;3985;49.366;2.738;2023-04-24T04:50:06;11.25;;;9.50;;
7879;SDS011;3985;49.366;2.738;2023-04-24T04:52:34;15.50;;;15.50;;
7879;SDS011;3985;49.366;2.738;2023-04-24T04:55:01;11.00;;;11.00;;
7879;SDS011;3985;49.366;2.738;2023-04-24T04:57:29;13.50;;;12.00;;
7879;SDS011;3985;49.366;2.738;2023-04-24T04:59:56;13.50;;;13.25;;
7879;SDS011;3985;49.366;2.738;2023-04-24T05:02:23;15.00;;;12.75;;
7879;SDS011;3985;49.366;2.738;2023-04-24T05:04:50;16.00;;;15.00;;
7879;SDS011;3985;49.366;2.738;2023-04-24T05:07:19;15.00;;;11.00;;
7879;SDS011;3985;49.366;2.738;2023-04-24T05:09:46;9.50;;;9.50;;
7879;SDS011;3985;49.366;2.738;2023-04-24T05:12:13;12.25;;;11.00;;
7879;SDS011;3985;49.366;2.738;2023-04-24T05:14:40;13.50;;;13.50;;
7879;SDS011;3985;49.366;2.738;2023-04-24T05:17:07;10.00;;;9.00;;
7879;SDS011;3985;49.366;2.738;2023-04-24T05:19:35;13.00;;;11.00;;
7879;SDS011;3985;49.366;2.738;2023-04-24T05:22:03;10.75;;;10.75;;
7879;SDS011;3985;49.366;2.738;2023-04-24T05:24:33;16.00;;;12.00;;
7879;SDS011;3985;49.366;2.738;2023-04-24T05:27:00;12.00;;;12.00;;
7879;SDS011;3985;49.366;2.738;2023-04-24T05:29:29;13.25;;;11.50;;
7879;SDS011;3985;49.366;2.738;2023-04-24T05:31:58;11.00;;;11.00;;
7879;SDS011;3985;49.366;2.738;2023-04-24T05:34:25;11.25;;;11.25;;
7879;SDS011;3985;49.366;2.738;2023-04-24T05:36:55;11.50;;;10.25;;
7879;SDS011;3985;49.366;2.738;2023-04-24T05:39:22;11.00;;;11.00;;
7879;SDS011;3985;49.366;2.738;2023-04-24T05:41:51;13.75;;;10.50;;
7879;SDS011;3985;49.366;2.738;2023-04-24T05:44:18;14.50;;;11.50;;
7879;SDS011;3985;49.366;2.738;2023-04-24T05:46:45;12.00;;;10.75;;
7879;SDS011;3985;49.366;2.738;2023-04-24T05:49:12;12.25;;;12.25;;
7879;SDS011;3985;49.366;2.738;2023-04-24T05:51:39;14.25;;;14.25;;
7879;SDS011;3985;49.366;2.738;2023-04-24T05:54:07;15.75;;;13.00;;
7879;SDS011;3985;49.366;2.738;2023-04-24T05:56:35;11.50;;;11.50;;
7879;SDS011;3985;49.366;2.738;2023-04-24T05:59:04;14.00;;;14.00;;
7879;SDS011;3985;49.366;2.738;2023-04-24T06:01:31;11.50;;;11.50;;
7879;SDS011;3985;49.366;2.738;2023-04-24T06:03:58;14.25;;;11.75;;
7879;SDS011;3985;49.366;2.738;2023-04-24T06:06:25;11.50;;;11.50;;
7879;SDS011;3985;49.366;2.738;2023-04-24T06:08:53;14.00;;;14.00;;
7879;SDS011;3985;49.366;2.738;2023-04-24T06:11:21;16.50;;;13.75;;
7879;SDS011;3985;49.366;2.738;2023-04-24T06:13:49;19.00;;;16.00;;
7879;SDS011;3985;49.366;2.738;2023-04-24T06:16:18;10.00;;;10.00;;
7879;SDS011;3985;49.366;2.738;2023-04-24T06:18:45;18.75;;;14.50;;
7879;SDS011;3985;49.366;2.738;2023-04-24T06:21:13;17.75;;;13.50;;
7879;SDS011;3985;49.366;2.738;2023-04-24T06:23:42;11.75;;;11.75;;
7879;SDS011;3985;49.366;2.738;2023-04-24T06:26:11;11.75;;;11.75;;
7879;SDS011;3985;49.366;2.738;2023-04-24T06:28:38;10.75;;;10.00;;
7879;SDS011;3985;49.366;2.738;2023-04-24T06:31:05;11.00;;;10.50;;
7879;SDS011;3985;49.366;2.738;2023-04-24T06:33:35;15.75;;;15.75;;
7879;SDS011;3985;49.366;2.738;2023-04-24T06:36:02;14.00;;;13.00;;
7879;SDS011;3985;49.366;2.738;2023-04-24T06:38:30;14.25;;;13.50;;
7879;SDS011;3985;49.366;2.738;2023-04-24T06:40:57;16.50;;;14.00;;
7879;SDS011;3985;49.366;2.738;2023-04-24T06:43:24;15.50;;;13.25;;
7879;SDS011;3985;49.366;2.738;2023-04-24T06:45:51;17.00;;;17.00;;
7879;SDS011;3985;49.366;2.738;2023-04-24T06:48:18;14.25;;;14.25;;
7879;SDS011;3985;49.366;2.738;2023-04-24T06:50:47;17.50;;;15.75;;
7879;SDS011;3985;49.366;2.738;2023-04-24T06:53:14;14.00;;;14.00;;
7879;SDS011;3985;49.366;2.738;2023-04-24T06:55:43;19.75;;;19.00;;
7879;SDS011;3985;49.366;2.738;2023-04-24T06:58:11;18.25;;;18.25;;
7879;SDS011;3985;49.366;2.738;2023-04-24T07:00:39;21.00;;;17.00;;
7879;SDS011;3985;49.366;2.738;2023-04-24T07:03:06;17.50;;;17.50;;
7879;SDS011;3985;49.366;2.738;2023-04-24T07:05:33;25.50;;;20.25;;
7879;SDS011;3985;49.366;2.738;2023-04-24T07:08:04;19.75;;;19.75;;
7879;SDS011;3985;49.366;2.738;2023-04-24T07:10:33;20.50;;;17.75;;
7879;SDS011;3985;49.366;2.738;2023-04-24T07:13:01;17.75;;;17.75;;
7879;SDS011;3985;49.366;2.738;2023-04-24T07:15:28;22.75;;;21.25;;
7879;SDS011;3985;49.366;2.738;2023-04-24T07:17:55;16.25;;;15.50;;
7879;SDS011;3985;49.366;2.738;2023-04-24T07:20:23;21.75;;;19.00;;
7879;SDS011;3985;49.366;2.738;2023-04-24T07:22:50;19.75;;;18.50;;
7879;SDS011;3985;49.366;2.738;2023-04-24T07:25:20;17.00;;;17.00;;
7879;SDS011;3985;49.366;2.738;2023-04-24T07:27:47;18.50;;;15.50;;
7879;SDS011;3985;49.366;2.738;2023-04-24T07:30:14;21.00;;;20.50;;
7879;SDS011;3985;49.366;2.738;2023-04-24T07:32:41;21.00;;;18.50;;
7879;SDS011;3985;49.366;2.738;2023-04-24T07:35:09;18.25;;;15.50;;
7879;SDS011;3985;49.366;2.738;2023-04-24T07:37:36;16.75;;;16.75;;
7879;SDS011;3985;49.366;2.738;2023-04-24T07:40:03;19.50;;;17.25;;
7879;SDS011;3985;49.366;2.738;2023-04-24T07:42:33;19.25;;;19.25;;
7879;SDS011;3985;49.366;2.738;2023-04-24T07:45:01;21.50;;;17.50;;
7879;SDS011;3985;49.366;2.738;2023-04-24T07:47:28;16.00;;;15.00;;
7879;SDS011;3985;49.366;2.738;2023-04-24T07:49:55;17.50;;;17.50;;
7879;SDS011;3985;49.366;2.738;2023-04-24T07:52:23;19.75;;;18.00;;
7879;SDS011;3985;49.366;2.738;2023-04-24T07:54:50;21.25;;;21.00;;
7879;SDS011;3985;49.366;2.738;2023-04-24T07:57:23;20.50;;;17.00;;
7879;SDS011;3985;49.366;2.738;2023-04-24T07:59:52;22.75;;;21.00;;
7879;SDS011;3985;49.366;2.738;2023-04-24T08:02:19;22.75;;;18.75;;
7879;SDS011;3985;49.366;2.738;2023-04-24T08:04:51;18.75;;;18.25;;
7879;SDS011;3985;49.366;2.738;2023-04-24T08:07:18;21.25;;;18.25;;
7879;SDS011;3985;49.366;2.738;2023-04-24T08:09:46;17.00;;;16.50;;
7879;SDS011;3985;49.366;2.738;2023-04-24T08:12:13;22.75;;;18.25;;
7879;SDS011;3985;49.366;2.738;2023-04-24T08:14:40;21.00;;;20.25;;
7879;SDS011;3985;49.366;2.738;2023-04-24T08:17:09;16.50;;;16.50;;
7879;SDS011;3985;49.366;2.738;2023-04-24T08:19:36;19.75;;;19.75;;
7879;SDS011;3985;49.366;2.738;2023-04-24T08:22:03;21.75;;;19.50;;
7879;SDS011;3985;49.366;2.738;2023-04-24T08:24:30;21.00;;;21.00;;
7879;SDS011;3985;49.366;2.738;2023-04-24T08:26:57;17.25;;;17.25;;
7879;SDS011;3985;49.366;2.738;2023-04-24T08:29:26;29.00;;;28.75;;
7879;SDS011;3985;49.366;2.738;2023-04-24T08:31:54;19.75;;;19.75;;
7879;SDS011;3985;49.366;2.738;2023-04-24T08:34:22;22.25;;;19.00;;
7879;SDS011;3985;49.366;2.738;2023-04-24T08:36:49;17.50;;;17.50;;
7879;SDS011;3985;49.366;2.738;2023-04-24T08:39:17;16.50;;;15.25;;
7879;SDS011;3985;49.366;2.738;2023-04-24T08:41:44;21.75;;;20.75;;
7879;SDS011;3985;49.366;2.738;2023-04-24T08:44:12;20.75;;;20.25;;
7879;SDS011;3985;49.366;2.738;2023-04-24T08:46:41;23.75;;;22.25;;
7879;SDS011;3985;49.366;2.738;2023-04-24T08:49:11;18.25;;;17.75;;
7879;SDS011;3985;49.366;2.738;2023-04-24T08:51:42;19.25;;;19.25;;
7879;SDS011;3985;49.366;2.738;2023-04-24T08:54:12;21.75;;;18.00;;
7879;SDS011;3985;49.366;2.738;2023-04-24T08:56:39;15.50;;;14.75;;
7879;SDS011;3985;49.366;2.738;2023-04-24T08:59:07;15.00;;;13.75;;
7879;SDS011;3985;49.366;2.738;2023-04-24T09:01:38;23.25;;;19.75;;
7879;SDS011;3985;49.366;2.738;2023-04-24T09:04:07;19.25;;;17.50;;
7879;SDS011;3985;49.366;2.738;2023-04-24T09:06:37;16.50;;;16.50;;
7879;SDS011;3985;49.366;2.738;2023-04-24T09:09:05;17.33;;;16.67;;
7879;SDS011;3985;49.366;2.738;2023-04-24T09:11:32;20.50;;;18.25;;
7879;SDS011;3985;49.366;2.738;2023-04-24T09:14:00;20.25;;;19.00;;
7879;SDS011;3985;49.366;2.738;2023-04-24T09:16:28;20.00;;;19.25;;
7879;SDS011;3985;49.366;2.738;2023-04-24T09:18:55;19.67;;;17.00;;
7879;SDS011;3985;49.366;2.738;2023-04-24T09:21:22;18.50;;;18.50;;
7879;SDS011;3985;49.366;2.738;2023-04-24T09:23:57;19.67;;;19.00;;
7879;SDS011;3985;49.366;2.738;2023-04-24T09:26:27;21.67;;;19.33;;
7879;SDS011;3985;49.366;2.738;2023-04-24T09:28:59;17.67;;;15.67;;
7879;SDS011;3985;49.366;2.738;2023-04-24T09:31:27;21.00;;;20.67;;
7879;SDS011;3985;49.366;2.738;2023-04-24T09:33:55;16.33;;;16.33;;
7879;SDS011;3985;49.366;2.738;2023-04-24T09:36:28;17.33;;;17.33;;
7879;SDS011;3985;49.366;2.738;2023-04-24T09:38:58;15.67;;;15.67;;
7879;SDS011;3985;49.366;2.738;2023-04-24T09:41:28;21.00;;;17.33;;
7879;SDS011;3985;49.366;2.738;2023-04-24T09:43:57;17.67;;;15.33;;
7879;SDS011;3985;49.366;2.738;2023-04-24T09:46:37;19.00;;;15.33;;
7879;SDS011;3985;49.366;2.738;2023-04-24T09:49:09;20.33;;;20.33;;
7879;SDS011;3985;49.366;2.738;2023-04-24T09:51:38;16.67;;;16.00;;
7879;SDS011;3985;49.366;2.738;2023-04-24T09:54:11;24.33;;;17.33;;
7879;SDS011;3985;49.366;2.738;2023-04-24T09:56:43;21.25;;;21.00;;
7879;SDS011;3985;49.366;2.738;2023-04-24T09:59:11;25.00;;;20.75;;
7879;SDS011;3985;49.366;2.738;2023-04-24T10:01:39;25.75;;;23.25;;
7879;SDS011;3985;49.366;2.738;2023-04-24T10:04:16;23.75;;;21.75;;
7879;SDS011;3985;49.366;2.738;2023-04-24T10:06:44;20.00;;;17.50;;
7879;SDS011;3985;49.366;2.738;2023-04-24T10:09:12;24.50;;;24.50;;
7879;SDS011;3985;49.366;2.738;2023-04-24T10:11:42;24.25;;;21.50;;
7879;SDS011;3985;49.366;2.738;2023-04-24T10:14:11;23.75;;;21.00;;
7879;SDS011;3985;49.366;2.738;2023-04-24T10:16:39;27.00;;;24.75;;
7879;SDS011;3985;49.366;2.738;2023-04-24T10:19:07;20.00;;;20.00;;
7879;SDS011;3985;49.366;2.738;2023-04-24T10:21:36;21.75;;;21.75;;
7879;SDS011;3985;49.366;2.738;2023-04-24T10:24:07;26.75;;;25.25;;
7879;SDS011;3985;49.366;2.738;2023-04-24T10:26:35;25.00;;;23.50;;
7879;SDS011;3985;49.366;2.738;2023-04-24T10:29:04;31.50;;;28.00;;
7879;SDS011;3985;49.366;2.738;2023-04-24T10:31:34;26.25;;;26.25;;
7879;SDS011;3985;49.366;2.738;2023-04-24T10:34:02;29.00;;;28.00;;
7879;SDS011;3985;49.366;2.738;2023-04-24T10:36:31;28.75;;;28.50;;
7879;SDS011;3985;49.366;2.738;2023-04-24T10:39:00;23.00;;;21.75;;
7879;SDS011;3985;49.366;2.738;2023-04-24T10:41:29;29.25;;;26.25;;
7879;SDS011;3985;49.366;2.738;2023-04-24T10:44:08;30.75;;;28.75;;
7879;SDS011;3985;49.366;2.738;2023-04-24T10:46:36;28.50;;;28.25;;
7879;SDS011;3985;49.366;2.738;2023-04-24T10:49:04;27.25;;;27.25;;
7879;SDS011;3985;49.366;2.738;2023-04-24T10:51:44;24.50;;;24.50;;
7879;SDS011;3985;49.366;2.738;2023-04-24T10:54:22;24.75;;;24.75;;
7879;SDS011;3985;49.366;2.738;2023-04-24T10:56:50;31.75;;;30.00;;
7879;SDS011;3985;49.366;2.738;2023-04-24T10:59:25;30.75;;;25.75;;
7879;SDS011;3985;49.366;2.738;2023-04-24T11:01:53;20.75;;;19.00;;
7879;SDS011;3985;49.366;2.738;2023-04-24T11:04:30;29.50;;;27.75;;
7879;SDS011;3985;49.366;2.738;2023-04-24T11:07:00;25.33;;;25.33;;
7879;SDS011;3985;49.366;2.738;2023-04-24T11:09:27;28.00;;;25.67;;
7879;SDS011;3985;49.366;2.738;2023-04-24T11:12:02;24.50;;;21.75;;
7879;SDS011;3985;49.366;2.738;2023-04-24T11:17:30;28.00;;;26.00;;
7879;SDS011;3985;49.366;2.738;2023-04-24T11:20:02;27.50;;;26.00;;
7879;SDS011;3985;49.366;2.738;2023-04-24T11:22:32;20.00;;;20.00;;
7879;SDS011;3985;49.366;2.738;2023-04-24T11:25:01;20.00;;;20.00;;
7879;SDS011;3985;49.366;2.738;2023-04-24T11:27:30;23.00;;;23.00;;
7879;SDS011;3985;49.366;2.738;2023-04-24T11:29:59;25.67;;;24.67;;
7879;SDS011;3985;49.366;2.738;2023-04-24T11:32:28;24.33;;;23.00;;
7879;SDS011;3985;49.366;2.738;2023-04-24T11:34:57;22.33;;;20.67;;
7879;SDS011;3985;49.366;2.738;2023-04-24T11:37:26;18.67;;;18.67;;
7879;SDS011;3985;49.366;2.738;2023-04-24T11:39:54;25.33;;;23.67;;
7879;SDS011;3985;49.366;2.738;2023-04-24T11:42:22;18.00;;;16.33;;
7879;SDS011;3985;49.366;2.738;2023-04-24T11:44:51;21.33;;;21.33;;
7879;SDS011;3985;49.366;2.738;2023-04-24T11:47:19;18.67;;;16.00;;
7879;SDS011;3985;49.366;2.738;2023-04-24T11:49:49;22.33;;;20.00;;
7879;SDS011;3985;49.366;2.738;2023-04-24T11:52:17;17.25;;;17.25;;
7879;SDS011;3985;49.366;2.738;2023-04-24T11:54:48;24.50;;;23.00;;
7879;SDS011;3985;49.366;2.738;2023-04-24T11:57:16;22.50;;;20.75;;
7879;SDS011;3985;49.366;2.738;2023-04-24T11:59:45;17.50;;;17.50;;
7879;SDS011;3985;49.366;2.738;2023-04-24T12:02:19;16.75;;;16.75;;
7879;SDS011;3985;49.366;2.738;2023-04-24T12:04:51;21.25;;;21.25;;
7879;SDS011;3985;49.366;2.738;2023-04-24T12:07:18;12.75;;;12.25;;
7879;SDS011;3985;49.366;2.738;2023-04-24T12:09:46;27.50;;;27.00;;
7879;SDS011;3985;49.366;2.738;2023-04-24T12:12:15;20.00;;;19.75;;
7879;SDS011;3985;49.366;2.738;2023-04-24T12:14:44;25.00;;;25.00;;
7879;SDS011;3985;49.366;2.738;2023-04-24T12:17:13;27.00;;;23.25;;
7879;SDS011;3985;49.366;2.738;2023-04-24T12:19:44;17.50;;;15.75;;
7879;SDS011;3985;49.366;2.738;2023-04-24T12:22:14;17.25;;;15.25;;
7879;SDS011;3985;49.366;2.738;2023-04-24T12:27:33;13.75;;;13.75;;
7879;SDS011;3985;49.366;2.738;2023-04-24T12:30:01;11.50;;;11.50;;
7879;SDS011;3985;49.366;2.738;2023-04-24T12:32:29;11.25;;;11.25;;
7879;SDS011;3985;49.366;2.738;2023-04-24T12:34:56;6.00;;;6.00;;
7879;SDS011;3985;49.366;2.738;2023-04-24T12:37:26;6.00;;;6.00;;
7879;SDS011;3985;49.366;2.738;2023-04-24T12:39:59;8.25;;;8.25;;
7879;SDS011;3985;49.366;2.738;2023-04-24T12:42:27;7.75;;;7.00;;
7879;SDS011;3985;49.366;2.738;2023-04-24T12:44:58;6.75;;;6.75;;
7879;SDS011;3985;49.366;2.738;2023-04-24T12:47:27;8.75;;;8.75;;
7879;SDS011;3985;49.366;2.738;2023-04-24T12:49:55;8.50;;;8.50;;
7879;SDS011;3985;49.366;2.738;2023-04-24T12:52:22;8.50;;;8.50;;
7879;SDS011;3985;49.366;2.738;2023-04-24T12:54:54;8.75;;;8.75;;
7879;SDS011;3985;49.366;2.738;2023-04-24T12:57:22;9.00;;;9.00;;
7879;SDS011;3985;49.366;2.738;2023-04-24T12:59:49;12.00;;;11.75;;
7879;SDS011;3985;49.366;2.738;2023-04-24T13:02:18;9.00;;;9.00;;
7879;SDS011;3985;49.366;2.738;2023-04-24T13:04:47;10.50;;;10.00;;
7879;SDS011;3985;49.366;2.738;2023-04-24T13:07:14;12.00;;;9.00;;
7879;SDS011;3985;49.366;2.738;2023-04-24T13:09:42;10.67;;;10.67;;
7879;SDS011;3985;49.366;2.738;2023-04-24T13:12:11;12.25;;;10.75;;
7879;SDS011;3985;49.366;2.738;2023-04-24T13:14:38;12.00;;;12.00;;
7879;SDS011;3985;49.366;2.738;2023-04-24T13:17:06;10.33;;;10.33;;
7879;SDS011;3985;49.366;2.738;2023-04-24T13:19:35;18.00;;;16.75;;
7879;SDS011;3985;49.366;2.738;2023-04-24T13:22:03;14.00;;;14.00;;
7879;SDS011;3985;49.366;2.738;2023-04-24T13:24:30;15.00;;;15.00;;
7879;SDS011;3985;49.366;2.738;2023-04-24T13:26:58;16.00;;;14.67;;
7879;SDS011;3985;49.366;2.738;2023-04-24T13:29:27;10.25;;;8.50;;
7879;SDS011;3985;49.366;2.738;2023-04-24T13:31:54;14.33;;;14.33;;
7879;SDS011;3985;49.366;2.738;2023-04-24T13:34:22;14.00;;;14.00;;
7879;SDS011;3985;49.366;2.738;2023-04-24T13:36:49;11.67;;;11.67;;
7879;SDS011;3985;49.366;2.738;2023-04-24T13:39:17;13.67;;;13.67;;
7879;SDS011;3985;49.366;2.738;2023-04-24T13:41:44;14.33;;;14.33;;
7879;SDS011;3985;49.366;2.738;2023-04-24T13:44:12;16.00;;;14.33;;
7879;SDS011;3985;49.366;2.738;2023-04-24T13:46:41;14.67;;;14.67;;
7879;SDS011;3985;49.366;2.738;2023-04-24T13:49:10;17.00;;;15.00;;
7879;SDS011;3985;49.366;2.738;2023-04-24T13:51:37;18.67;;;18.67;;
7879;SDS011;3985;49.366;2.738;2023-04-24T13:54:05;16.00;;;14.00;;
7879;SDS011;3985;49.366;2.738;2023-04-24T13:56:32;13.33;;;13.33;;
7879;SDS011;3985;49.366;2.738;2023-04-24T13:58:59;13.67;;;9.67;;
7879;SDS011;3985;49.366;2.738;2023-04-24T14:01:27;14.00;;;14.00;;
7879;SDS011;3985;49.366;2.738;2023-04-24T14:03:55;12.00;;;11.50;;
7879;SDS011;3985;49.366;2.738;2023-04-24T14:06:24;8.75;;;8.00;;
7879;SDS011;3985;49.366;2.738;2023-04-24T14:08:51;10.00;;;10.00;;
7879;SDS011;3985;49.366;2.738;2023-04-24T14:11:19;9.50;;;9.50;;
7879;SDS011;3985;49.366;2.738;2023-04-24T14:13:46;10.00;;;10.00;;
7879;SDS011;3985;49.366;2.738;2023-04-24T14:16:13;6.00;;;6.00;;
7879;SDS011;3985;49.366;2.738;2023-04-24T14:18:41;13.00;;;8.50;;
7879;SDS011;3985;49.366;2.738;2023-04-24T14:21:09;8.25;;;8.25;;
7879;SDS011;3985;49.366;2.738;2023-04-24T14:23:36;14.00;;;11.50;;
7879;SDS011;3985;49.366;2.738;2023-04-24T14:26:03;11.50;;;9.50;;
7879;SDS011;3985;49.366;2.738;2023-04-24T14:28:32;14.50;;;11.00;;
7879;SDS011;3985;49.366;2.738;2023-04-24T14:30:59;13.50;;;13.25;;
7879;SDS011;3985;49.366;2.738;2023-04-24T14:33:26;8.25;;;8.25;;
7879;SDS011;3985;49.366;2.738;2023-04-24T14:35:54;10.00;;;8.75;;
7879;SDS011;3985;49.366;2.738;2023-04-24T14:38:22;14.25;;;11.75;;
7879;SDS011;3985;49.366;2.738;2023-04-24T14:40:49;8.25;;;8.25;;
7879;SDS011;3985;49.366;2.738;2023-04-24T14:43:17;10.00;;;8.25;;
7879;SDS011;3985;49.366;2.738;2023-04-24T14:45:44;12.50;;;12.50;;
7879;SDS011;3985;49.366;2.738;2023-04-24T14:48:11;11.00;;;11.00;;
7879;SDS011;3985;49.366;2.738;2023-04-24T14:50:39;11.67;;;9.67;;
7879;SDS011;3985;49.366;2.738;2023-04-24T14:53:06;12.00;;;12.00;;
7879;SDS011;3985;49.366;2.738;2023-04-24T14:55:35;14.67;;;14.67;;
7879;SDS011;3985;49.366;2.738;2023-04-24T14:58:02;21.50;;;20.00;;
7879;SDS011;3985;49.366;2.738;2023-04-24T15:00:29;14.25;;;14.25;;
7879;SDS011;3985;49.366;2.738;2023-04-24T15:02:57;17.00;;;16.75;;
7879;SDS011;3985;49.366;2.738;2023-04-24T15:05:24;13.75;;;11.50;;
7879;SDS011;3985;49.366;2.738;2023-04-24T15:07:52;15.50;;;13.50;;